Powhatan, Virginia
Current Conditions -  °F | °C
As of 9:15 AM on Tuesday 21 Oct 2014 (Local Time) from KW81 Reporting Station
Clear Clear  
Wind Chill: 56°   Ceiling: Unl
Heat Index: 56°   Visibility: 10mi
Dew Point: 49°   Wind: 0mph
Humidity: 77%   Direction: NA
Pressure: 29.91"   Gusts: NA
Location:  37.54°N, 77.92°W
Report Text: KW81 211315Z AUTO 00000KT 10SM CLR 13/10 A2991 RMK AO1 T01340095
Loading
Personal Weather Stations






























Interactive Weather Map
Tropical Storm Tracking
New forecast layout! Learn more

10-Day Weather Forecast

Advertisements
Track Severe Weather on mobile